Time;durP1;ratioP1;P1;durP2;ratioP2;P2;SDS_P1;SDS_P2;PMS_P1;PMS_P2;Temp;Humidity;BMP_temperature;BMP_pressure;BME280_temperature;BME280_humidity;BME280_pressure;Samples;Min_cycle;Max_cycle;Signal;HPM_P1;HPM_P2
2024/01/09 00:01:26;;;;;;;15.98;11.02;;;;;;;;;;5096219;28;20234;-65
2024/01/09 00:03:55;;;;;;;12.25;9.70;;;;;;;;;;5094350;28;20610;-65
2024/01/09 00:06:23;;;;;;;13.32;10.20;;;;;;;;;;5095007;28;20230;-65
2024/01/09 00:08:50;;;;;;;16.75;10.35;;;;;;;;;;5095584;28;20207;-67
2024/01/09 00:11:20;;;;;;;12.82;9.93;;;;;;;;;;5096201;28;20237;-64
2024/01/09 00:13:48;;;;;;;24.90;10.98;;;;;;;;;;5095591;28;20191;-64
2024/01/09 00:16:16;;;;;;;12.93;11.02;;;;;;;;;;5095839;28;20203;-64
2024/01/09 00:18:44;;;;;;;10.07;8.55;;;;;;;;;;5095351;28;20195;-65
2024/01/09 00:21:12;;;;;;;15.73;11.15;;;;;;;;;;5095527;28;20200;-65
2024/01/09 00:23:40;;;;;;;17.00;11.27;;;;;;;;;;5095891;28;20301;-64
2024/01/09 00:26:08;;;;;;;17.10;12.25;;;;;;;;;;5095989;28;20215;-65
2024/01/09 00:28:37;;;;;;;18.40;12.10;;;;;;;;;;5094785;28;20286;-66
2024/01/09 00:31:05;;;;;;;17.17;10.35;;;;;;;;;;5086141;28;20229;-65
2024/01/09 00:33:34;;;;;;;16.85;11.38;;;;;;;;;;5073845;28;20226;-65
2024/01/09 00:36:03;;;;;;;15.48;10.07;;;;;;;;;;5087292;28;20199;-66
2024/01/09 00:38:32;;;;;;;18.45;11.40;;;;;;;;;;5095000;28;20203;-65
2024/01/09 00:41:00;;;;;;;16.25;11.10;;;;;;;;;;5094345;28;20230;-66
2024/01/09 00:43:28;;;;;;;16.15;12.60;;;;;;;;;;5093977;28;20195;-65
2024/01/09 00:45:57;;;;;;;13.75;9.90;;;;;;;;;;5094929;28;20223;-64
2024/01/09 00:48:26;;;;;;;16.00;10.45;;;;;;;;;;5072851;28;20282;-65
2024/01/09 00:50:54;;;;;;;17.25;10.35;;;;;;;;;;5089106;28;20199;-65
2024/01/09 00:53:22;;;;;;;13.27;9.57;;;;;;;;;;5094071;28;20213;-64
2024/01/09 00:55:50;;;;;;;18.15;10.95;;;;;;;;;;5094507;28;20191;-64
2024/01/09 00:58:18;;;;;;;26.20;13.68;;;;;;;;;;5075972;28;20202;-65
2024/01/09 01:00:46;;;;;;;19.45;11.75;;;;;;;;;;5094045;28;20235;-65
2024/01/09 01:03:16;;;;;;;15.45;10.70;;;;;;;;;;5075112;28;20208;-65
2024/01/09 01:05:45;;;;;;;19.92;12.48;;;;;;;;;;5092428;28;20213;-65
2024/01/09 01:08:16;;;;;;;16.95;10.45;;;;;;;;;;5094107;28;20215;-65
2024/01/09 01:10:44;;;;;;;14.25;10.05;;;;;;;;;;5075908;28;20200;-65
2024/01/09 01:13:12;;;;;;;15.48;11.07;;;;;;;;;;5093844;28;20199;-65
2024/01/09 01:15:40;;;;;;;18.65;11.75;;;;;;;;;;5094607;28;20260;-65
2024/01/09 01:18:08;;;;;;;14.85;10.30;;;;;;;;;;5093228;28;20705;-64
2024/01/09 01:20:38;;;;;;;17.20;11.45;;;;;;;;;;5094376;28;20196;-65
2024/01/09 01:23:06;;;;;;;18.83;10.45;;;;;;;;;;5094422;28;20203;-66
2024/01/09 01:25:34;;;;;;;15.10;10.50;;;;;;;;;;5093852;28;20692;-66
2024/01/09 01:28:03;;;;;;;18.77;10.52;;;;;;;;;;5094079;28;20230;-64
2024/01/09 01:30:31;;;;;;;18.60;11.65;;;;;;;;;;5075964;28;20213;-67
2024/01/09 01:32:59;;;;;;;15.15;11.10;;;;;;;;;;5075893;28;20198;-64
2024/01/09 01:35:27;;;;;;;13.93;10.27;;;;;;;;;;5094341;28;20196;-66
2024/01/09 01:37:57;;;;;;;14.43;10.55;;;;;;;;;;5078011;28;20191;-65
2024/01/09 01:40:25;;;;;;;12.75;10.00;;;;;;;;;;5085076;28;20272;-64
2024/01/09 01:42:56;;;;;;;11.93;9.98;;;;;;;;;;5093976;28;20207;-64
2024/01/09 01:45:25;;;;;;;11.05;8.60;;;;;;;;;;5084301;28;20609;-65
2024/01/09 01:47:54;;;;;;;24.55;10.82;;;;;;;;;;5093393;28;20231;-65
2024/01/09 01:50:22;;;;;;;13.85;10.10;;;;;;;;;;5092462;28;20209;-64
2024/01/09 01:52:51;;;;;;;17.10;10.73;;;;;;;;;;5075801;28;20252;-66
2024/01/09 01:55:22;;;;;;;11.70;9.68;;;;;;;;;;5093923;28;20195;-64
2024/01/09 01:57:51;;;;;;;18.33;13.18;;;;;;;;;;5093761;28;20187;-65
2024/01/09 02:00:19;;;;;;;20.10;11.10;;;;;;;;;;5075540;28;20203;-64
2024/01/09 02:02:52;;;;;;;17.83;11.27;;;;;;;;;;5074506;28;20670;-68
2024/01/09 02:05:20;;;;;;;16.48;9.70;;;;;;;;;;5092785;28;20195;-65
2024/01/09 02:07:50;;;;;;;13.45;10.25;;;;;;;;;;5092511;28;20221;-65
2024/01/09 02:10:18;;;;;;;14.45;9.88;;;;;;;;;;5093590;28;20262;-65
2024/01/09 02:12:48;;;;;;;13.85;10.40;;;;;;;;;;5093542;28;20226;-66
2024/01/09 02:15:16;;;;;;;14.45;10.50;;;;;;;;;;5093746;28;20195;-64
2024/01/09 02:17:44;;;;;;;14.07;9.70;;;;;;;;;;5093466;28;20199;-64
2024/01/09 02:20:12;;;;;;;10.73;9.73;;;;;;;;;;5093609;28;20200;-66
2024/01/09 02:22:41;;;;;;;35.90;10.88;;;;;;;;;;5093530;28;20203;-69
2024/01/09 02:25:09;;;;;;;15.27;10.65;;;;;;;;;;5094086;28;20195;-64
2024/01/09 02:27:42;;;;;;;14.77;10.10;;;;;;;;;;5092969;28;20257;-65
2024/01/09 02:30:12;;;;;;;14.43;9.00;;;;;;;;;;5073823;28;20228;-65
2024/01/09 02:32:40;;;;;;;18.00;11.02;;;;;;;;;;5078104;28;20199;-67
2024/01/09 02:35:09;;;;;;;13.13;10.20;;;;;;;;;;5058127;28;20207;-65
2024/01/09 02:37:37;;;;;;;17.13;11.60;;;;;;;;;;5092625;28;20195;-64
2024/01/09 02:40:08;;;;;;;10.55;7.72;;;;;;;;;;5092567;28;20262;-65
2024/01/09 02:42:36;;;;;;;13.63;8.93;;;;;;;;;;5074916;28;20188;-65
2024/01/09 02:45:04;;;;;;;26.25;13.15;;;;;;;;;;5093310;28;20272;-65
2024/01/09 02:47:34;;;;;;;10.93;8.25;;;;;;;;;;5075352;28;20219;-65
2024/01/09 02:50:02;;;;;;;19.08;10.15;;;;;;;;;;5092779;28;20204;-65
2024/01/09 02:52:30;;;;;;;13.88;9.68;;;;;;;;;;5071174;28;20208;-68
2024/01/09 02:54:59;;;;;;;14.38;10.38;;;;;;;;;;5089821;28;20555;-65
2024/01/09 02:57:27;;;;;;;10.68;8.93;;;;;;;;;;5086077;28;20192;-65
2024/01/09 02:59:55;;;;;;;15.50;9.95;;;;;;;;;;5088233;28;20199;-64
2024/01/09 03:02:23;;;;;;;15.57;10.95;;;;;;;;;;5091170;28;20202;-66
2024/01/09 03:04:53;;;;;;;18.40;9.65;;;;;;;;;;5091681;28;20203;-65
2024/01/09 03:07:21;;;;;;;15.43;10.38;;;;;;;;;;5091926;28;20288;-65
2024/01/09 03:09:49;;;;;;;15.65;9.68;;;;;;;;;;5093115;28;20203;-65
2024/01/09 03:12:18;;;;;;;12.27;9.95;;;;;;;;;;5092382;28;20222;-64
2024/01/09 03:14:46;;;;;;;14.95;10.50;;;;;;;;;;5090676;28;20204;-65
2024/01/09 03:17:14;;;;;;;12.65;10.00;;;;;;;;;;5092681;28;20295;-65
2024/01/09 03:19:43;;;;;;;16.80;11.35;;;;;;;;;;5074726;28;20533;-65
2024/01/09 03:22:13;;;;;;;16.90;9.77;;;;;;;;;;5092533;28;20214;-65
2024/01/09 03:24:41;;;;;;;23.38;11.20;;;;;;;;;;5093346;28;20187;-68
2024/01/09 03:27:09;;;;;;;14.77;11.25;;;;;;;;;;5092894;28;20696;-64
2024/01/09 03:29:37;;;;;;;9.85;7.68;;;;;;;;;;5072650;28;20203;-65
2024/01/09 03:32:06;;;;;;;17.48;11.32;;;;;;;;;;5097141;28;20689;-65
2024/01/09 03:34:34;;;;;;;19.08;10.00;;;;;;;;;;5095364;28;20230;-65
2024/01/09 03:37:03;;;;;;;15.68;10.52;;;;;;;;;;5096258;28;20199;-65
2024/01/09 03:39:32;;;;;;;12.10;9.95;;;;;;;;;;5096506;28;20202;-65
2024/01/09 03:42:00;;;;;;;14.10;8.80;;;;;;;;;;5078288;28;20227;-66
2024/01/09 03:44:29;;;;;;;15.82;8.90;;;;;;;;;;5095987;28;20215;-64
2024/01/09 03:46:57;;;;;;;13.32;9.13;;;;;;;;;;5095943;28;20195;-65
2024/01/09 03:49:26;;;;;;;10.60;8.98;;;;;;;;;;5094751;28;20195;-65
2024/01/09 03:51:54;;;;;;;13.57;8.50;;;;;;;;;;5095154;28;20202;-65
2024/01/09 03:54:23;;;;;;;17.33;8.80;;;;;;;;;;5096100;28;20237;-66
2024/01/09 03:56:52;;;;;;;13.30;9.10;;;;;;;;;;5097230;28;20228;-68
2024/01/09 03:59:20;;;;;;;18.15;10.10;;;;;;;;;;5095769;28;20206;-65
2024/01/09 04:01:48;;;;;;;9.30;7.50;;;;;;;;;;5094065;28;20562;-66
2024/01/09 04:04:17;;;;;;;12.60;8.15;;;;;;;;;;5094837;28;20395;-65
2024/01/09 04:06:45;;;;;;;25.83;9.60;;;;;;;;;;5095249;28;20225;-65
2024/01/09 04:09:13;;;;;;;13.55;9.05;;;;;;;;;;5095255;28;20573;-65
2024/01/09 04:11:45;;;;;;;12.90;9.40;;;;;;;;;;5096376;28;20196;-65
2024/01/09 04:14:14;;;;;;;12.25;9.43;;;;;;;;;;5095350;28;20274;-65
2024/01/09 04:16:46;;;;;;;12.85;8.70;;;;;;;;;;5096261;28;20640;-65
2024/01/09 04:19:15;;;;;;;12.30;8.98;;;;;;;;;;5076747;28;20202;-65
2024/01/09 04:21:43;;;;;;;12.93;9.13;;;;;;;;;;5096327;28;20206;-65
2024/01/09 04:24:11;;;;;;;14.15;8.07;;;;;;;;;;5094904;28;20225;-67
2024/01/09 04:26:39;;;;;;;15.45;8.38;;;;;;;;;;5096185;28;20191;-65
2024/01/09 04:29:07;;;;;;;11.93;9.05;;;;;;;;;;5095273;28;20223;-65
2024/01/09 04:31:37;;;;;;;15.35;9.38;;;;;;;;;;5096006;28;20309;-65
2024/01/09 04:34:05;;;;;;;12.43;8.57;;;;;;;;;;5095313;28;20267;-65
2024/01/09 04:36:33;;;;;;;15.20;8.40;;;;;;;;;;5096154;28;20207;-65
2024/01/09 04:39:02;;;;;;;13.70;9.43;;;;;;;;;;5077158;28;20209;-66
2024/01/09 04:41:30;;;;;;;12.75;8.95;;;;;;;;;;5094162;28;20351;-65
2024/01/09 04:43:58;;;;;;;11.10;8.63;;;;;;;;;;5095170;28;20807;-65
2024/01/09 04:46:26;;;;;;;13.32;8.70;;;;;;;;;;5096072;28;20721;-66
2024/01/09 04:48:56;;;;;;;12.63;7.97;;;;;;;;;;5095637;28;20223;-66
2024/01/09 04:51:24;;;;;;;11.93;7.78;;;;;;;;;;5095796;28;20286;-65
2024/01/09 04:53:52;;;;;;;12.50;8.55;;;;;;;;;;5095193;28;20265;-66
2024/01/09 04:56:21;;;;;;;14.23;9.40;;;;;;;;;;5095663;28;20282;-66
2024/01/09 04:58:53;;;;;;;13.27;8.77;;;;;;;;;;5094806;28;20207;-65
2024/01/09 05:01:21;;;;;;;15.07;9.65;;;;;;;;;;5095305;28;20552;-65
2024/01/09 05:03:50;;;;;;;11.75;7.50;;;;;;;;;;5094722;28;20729;-66
2024/01/09 05:06:19;;;;;;;17.80;9.70;;;;;;;;;;5094671;28;20198;-65
2024/01/09 05:08:48;;;;;;;17.33;9.73;;;;;;;;;;5094366;28;20211;-65
2024/01/09 05:11:16;;;;;;;15.30;9.68;;;;;;;;;;5095493;28;20207;-65
2024/01/09 05:13:44;;;;;;;10.50;7.30;;;;;;;;;;5093556;28;20215;-71
2024/01/09 05:16:13;;;;;;;16.38;10.07;;;;;;;;;;5093615;28;20205;-71
2024/01/09 05:18:41;;;;;;;12.63;8.55;;;;;;;;;;5093578;28;20203;-68
2024/01/09 05:21:09;;;;;;;12.65;8.38;;;;;;;;;;5093654;28;20195;-71
2024/01/09 05:23:39;;;;;;;10.98;9.05;;;;;;;;;;5094301;28;20204;-71
2024/01/09 05:26:07;;;;;;;12.88;9.20;;;;;;;;;;5092996;28;20941;-71
2024/01/09 05:28:36;;;;;;;18.20;10.52;;;;;;;;;;5093565;28;20208;-70
2024/01/09 05:31:04;;;;;;;13.35;9.20;;;;;;;;;;5088471;28;20671;-71
2024/01/09 05:33:32;;;;;;;16.17;10.25;;;;;;;;;;5088623;28;20199;-70
2024/01/09 05:36:00;;;;;;;12.38;8.80;;;;;;;;;;5093137;28;21049;-71
2024/01/09 05:38:28;;;;;;;9.50;8.60;;;;;;;;;;5093665;28;20231;-71
2024/01/09 05:40:58;;;;;;;8.73;7.47;;;;;;;;;;5091817;28;20347;-71
2024/01/09 05:43:26;;;;;;;12.27;8.48;;;;;;;;;;5093463;28;20207;-71
2024/01/09 05:45:54;;;;;;;16.23;7.80;;;;;;;;;;5092617;28;20618;-71
2024/01/09 05:48:23;;;;;;;11.77;8.10;;;;;;;;;;5094022;28;20356;-71
2024/01/09 05:50:52;;;;;;;16.98;9.85;;;;;;;;;;5092504;28;20680;-70
2024/01/09 05:53:20;;;;;;;17.88;10.68;;;;;;;;;;5091549;28;20684;-71
2024/01/09 05:55:49;;;;;;;11.93;8.85;;;;;;;;;;5057856;28;20739;-71
2024/01/09 05:58:18;;;;;;;18.05;10.10;;;;;;;;;;5092822;28;20191;-71
2024/01/09 06:00:46;;;;;;;15.25;8.95;;;;;;;;;;5091614;28;20199;-71
2024/01/09 06:03:15;;;;;;;11.65;7.90;;;;;;;;;;5090954;28;20195;-71
2024/01/09 06:05:43;;;;;;;15.00;9.70;;;;;;;;;;5090595;28;20207;-71
2024/01/09 06:08:11;;;;;;;16.55;9.60;;;;;;;;;;5091334;28;20256;-70
2024/01/09 06:10:39;;;;;;;11.80;8.35;;;;;;;;;;5092167;28;20195;-71
2024/01/09 06:13:08;;;;;;;12.30;9.40;;;;;;;;;;5092941;28;20202;-71
2024/01/09 06:15:37;;;;;;;13.93;9.40;;;;;;;;;;5092157;28;20228;-71
2024/01/09 06:18:07;;;;;;;12.25;7.63;;;;;;;;;;5092173;28;20577;-70
2024/01/09 06:20:35;;;;;;;9.68;8.40;;;;;;;;;;5092218;28;20207;-70
2024/01/09 06:23:03;;;;;;;12.27;7.70;;;;;;;;;;5092775;28;20691;-71
2024/01/09 06:25:32;;;;;;;16.23;9.70;;;;;;;;;;5072874;28;20196;-71
2024/01/09 06:28:00;;;;;;;13.88;7.20;;;;;;;;;;5091554;28;20211;-70
2024/01/09 06:30:28;;;;;;;24.60;9.25;;;;;;;;;;5091815;28;20211;-71
2024/01/09 06:32:58;;;;;;;12.85;9.18;;;;;;;;;;5076116;28;20583;-71
2024/01/09 06:35:26;;;;;;;11.05;9.60;;;;;;;;;;5092303;28;20202;-71
2024/01/09 06:37:55;;;;;;;16.77;8.70;;;;;;;;;;5092625;28;20205;-71
2024/01/09 06:40:24;;;;;;;15.90;10.52;;;;;;;;;;5074621;28;20226;-72
2024/01/09 06:42:52;;;;;;;16.40;9.70;;;;;;;;;;5092496;28;20217;-69
2024/01/09 06:45:20;;;;;;;18.48;9.23;;;;;;;;;;5092003;28;20324;-71
2024/01/09 06:47:49;;;;;;;18.90;9.45;;;;;;;;;;5092478;28;20726;-71
2024/01/09 06:50:19;;;;;;;13.02;9.57;;;;;;;;;;5093150;28;20211;-71
2024/01/09 06:52:47;;;;;;;13.85;9.50;;;;;;;;;;5093727;28;20268;-70
2024/01/09 06:55:15;;;;;;;14.75;8.95;;;;;;;;;;5091990;28;20750;-67
2024/01/09 06:57:43;;;;;;;13.60;8.85;;;;;;;;;;5090635;28;20199;-67
2024/01/09 07:00:13;;;;;;;14.90;9.60;;;;;;;;;;5091249;28;20195;-67
2024/01/09 07:02:42;;;;;;;9.98;7.65;;;;;;;;;;5090191;28;20584;-67
2024/01/09 07:05:10;;;;;;;12.15;9.57;;;;;;;;;;5094739;28;20210;-69
2024/01/09 07:07:39;;;;;;;12.20;9.05;;;;;;;;;;5096078;28;20203;-69
2024/01/09 07:10:08;;;;;;;13.95;9.27;;;;;;;;;;5077241;28;20215;-67
2024/01/09 07:12:37;;;;;;;22.25;9.93;;;;;;;;;;5093833;28;20217;-67
2024/01/09 07:15:08;;;;;;;13.27;9.50;;;;;;;;;;5076438;28;20662;-67
2024/01/09 07:17:36;;;;;;;16.30;9.65;;;;;;;;;;5093947;28;20187;-67
2024/01/09 07:20:04;;;;;;;15.50;8.90;;;;;;;;;;5093350;28;20203;-67
2024/01/09 07:22:33;;;;;;;15.30;9.88;;;;;;;;;;5076674;28;20203;-69
2024/01/09 07:25:03;;;;;;;15.45;9.15;;;;;;;;;;5090981;28;20203;-69
2024/01/09 07:27:31;;;;;;;16.60;8.90;;;;;;;;;;5071581;28;20263;-67
2024/01/09 07:30:00;;;;;;;15.75;8.65;;;;;;;;;;5093583;28;20211;-67
2024/01/09 07:32:28;;;;;;;13.57;8.52;;;;;;;;;;5089208;28;20206;-67
2024/01/09 07:34:56;;;;;;;16.15;9.88;;;;;;;;;;5094392;28;20211;-69
2024/01/09 07:37:25;;;;;;;12.13;8.60;;;;;;;;;;5094758;28;20207;-69
2024/01/09 07:39:53;;;;;;;14.50;9.90;;;;;;;;;;5094351;28;20197;-68
2024/01/09 07:42:22;;;;;;;13.35;8.32;;;;;;;;;;5076232;28;20199;-68
2024/01/09 07:44:51;;;;;;;11.43;8.40;;;;;;;;;;5087796;28;20224;-67
2024/01/09 07:47:19;;;;;;;17.20;10.27;;;;;;;;;;5092659;28;20191;-68
2024/01/09 07:49:47;;;;;;;11.57;8.98;;;;;;;;;;5075991;28;20215;-68
2024/01/09 07:52:15;;;;;;;16.52;9.07;;;;;;;;;;5094271;28;20203;-67
2024/01/09 07:54:43;;;;;;;17.63;9.65;;;;;;;;;;5094299;28;20199;-68
2024/01/09 07:57:12;;;;;;;15.20;8.95;;;;;;;;;;5089310;28;20206;-68
2024/01/09 07:59:43;;;;;;;14.55;9.15;;;;;;;;;;5093798;28;20192;-69
2024/01/09 08:02:11;;;;;;;16.50;9.15;;;;;;;;;;5092434;28;20192;-67
2024/01/09 08:04:40;;;;;;;24.50;12.43;;;;;;;;;;5092750;28;20196;-69
2024/01/09 08:07:08;;;;;;;18.88;8.73;;;;;;;;;;5093870;28;20712;-69
2024/01/09 08:09:38;;;;;;;17.83;10.82;;;;;;;;;;5076425;28;20574;-69
2024/01/09 08:12:09;;;;;;;11.55;8.95;;;;;;;;;;5093877;28;20207;-69
2024/01/09 08:14:37;;;;;;;12.05;8.60;;;;;;;;;;5091713;28;20617;-69
2024/01/09 08:17:07;;;;;;;13.40;8.95;;;;;;;;;;5093546;28;20217;-68
2024/01/09 08:19:35;;;;;;;15.20;9.38;;;;;;;;;;5072540;28;20306;-69
2024/01/09 08:22:03;;;;;;;12.82;8.45;;;;;;;;;;5093360;28;20207;-68
2024/01/09 08:24:32;;;;;;;14.30;11.23;;;;;;;;;;5093216;28;20225;-69
2024/01/09 08:27:00;;;;;;;14.85;9.65;;;;;;;;;;5093987;28;20188;-68
2024/01/09 08:29:28;;;;;;;18.40;12.02;;;;;;;;;;5093608;28;20661;-68
2024/01/09 08:31:57;;;;;;;14.25;11.02;;;;;;;;;;5093713;28;20202;-68
2024/01/09 08:34:27;;;;;;;18.45;10.90;;;;;;;;;;5092151;28;20205;-70
2024/01/09 08:36:55;;;;;;;11.32;10.00;;;;;;;;;;5093624;28;20194;-69
2024/01/09 08:39:23;;;;;;;15.60;9.80;;;;;;;;;;5092750;28;20207;-72
2024/01/09 08:41:53;;;;;;;15.02;10.88;;;;;;;;;;5093035;28;20230;-69
2024/01/09 08:44:22;;;;;;;20.15;12.50;;;;;;;;;;5088212;28;20690;-70
2024/01/09 08:46:50;;;;;;;22.17;12.40;;;;;;;;;;5092660;28;20199;-69
2024/01/09 08:49:19;;;;;;;13.30;11.23;;;;;;;;;;5092327;28;20547;-69
2024/01/09 08:51:49;;;;;;;17.30;12.10;;;;;;;;;;5093248;28;20204;-69
2024/01/09 08:54:17;;;;;;;15.18;11.73;;;;;;;;;;5074714;28;20199;-69
2024/01/09 08:56:45;;;;;;;18.58;16.38;;;;;;;;;;5090900;28;20203;-70
2024/01/09 08:59:14;;;;;;;18.88;12.18;;;;;;;;;;5092001;28;20281;-67
2024/01/09 09:01:42;;;;;;;15.73;12.00;;;;;;;;;;5091829;28;20654;-68
2024/01/09 09:04:10;;;;;;;15.02;10.45;;;;;;;;;;5091760;28;20196;-68
2024/01/09 09:06:38;;;;;;;15.13;11.30;;;;;;;;;;5091982;28;20195;-68
2024/01/09 09:09:09;;;;;;;16.10;12.13;;;;;;;;;;5091716;28;20195;-68
2024/01/09 09:11:37;;;;;;;12.73;11.18;;;;;;;;;;5074576;28;20211;-69
2024/01/09 09:14:05;;;;;;;19.63;13.90;;;;;;;;;;5092113;28;20207;-69
2024/01/09 09:16:34;;;;;;;15.90;12.30;;;;;;;;;;5092415;28;20199;-70
2024/01/09 09:19:02;;;;;;;13.05;11.10;;;;;;;;;;5091723;28;20201;-68
2024/01/09 09:21:30;;;;;;;36.40;16.98;;;;;;;;;;5092674;28;20527;-68
2024/01/09 09:23:59;;;;;;;22.98;13.30;;;;;;;;;;5091459;28;20221;-68
2024/01/09 09:26:29;;;;;;;15.40;13.13;;;;;;;;;;5089488;28;20352;-69
2024/01/09 09:28:57;;;;;;;14.13;12.73;;;;;;;;;;5091917;28;20233;-68
2024/01/09 09:31:27;;;;;;;17.02;13.18;;;;;;;;;;5091431;28;20285;-69
2024/01/09 09:33:57;;;;;;;18.98;14.15;;;;;;;;;;5092399;28;20183;-68
2024/01/09 09:36:25;;;;;;;17.88;13.85;;;;;;;;;;5073296;28;20618;-68
2024/01/09 09:38:53;;;;;;;14.90;13.18;;;;;;;;;;5091111;28;20199;-68
2024/01/09 09:41:22;;;;;;;15.00;13.45;;;;;;;;;;5091028;28;20227;-69
2024/01/09 09:43:52;;;;;;;17.30;14.13;;;;;;;;;;5089686;28;20199;-69
2024/01/09 09:46:21;;;;;;;17.88;13.98;;;;;;;;;;5090893;28;20582;-69
2024/01/09 09:48:51;;;;;;;15.57;13.10;;;;;;;;;;5091281;28;20195;-68
2024/01/09 09:51:20;;;;;;;19.30;14.85;;;;;;;;;;5090679;28;20215;-69
2024/01/09 09:53:48;;;;;;;16.33;14.63;;;;;;;;;;5091069;28;20207;-69
2024/01/09 09:56:17;;;;;;;18.45;14.70;;;;;;;;;;5089772;28;20203;-68
2024/01/09 09:58:45;;;;;;;18.52;15.30;;;;;;;;;;5089939;28;20579;-68
2024/01/09 10:01:15;;;;;;;18.10;16.48;;;;;;;;;;5088522;28;20192;-68
2024/01/09 10:03:46;;;;;;;16.65;15.10;;;;;;;;;;5072796;28;20194;-68
2024/01/09 10:06:15;;;;;;;20.92;17.65;;;;;;;;;;5089296;28;20187;-69
2024/01/09 10:08:44;;;;;;;23.45;18.83;;;;;;;;;;5090291;28;20203;-68
2024/01/09 10:11:12;;;;;;;19.50;17.40;;;;;;;;;;5071523;28;20750;-67
2024/01/09 10:13:41;;;;;;;22.00;18.52;;;;;;;;;;5090394;28;20198;-68
2024/01/09 10:16:09;;;;;;;20.67;18.83;;;;;;;;;;5072496;28;20195;-69
2024/01/09 10:18:39;;;;;;;22.27;20.08;;;;;;;;;;5090635;28;20207;-68
2024/01/09 10:21:08;;;;;;;22.13;19.85;;;;;;;;;;5089718;28;20223;-68
2024/01/09 10:23:38;;;;;;;20.45;18.45;;;;;;;;;;5074757;28;20196;-67
2024/01/09 10:26:11;;;;;;;23.58;19.67;;;;;;;;;;5090199;28;20237;-69
2024/01/09 10:28:39;;;;;;;21.15;19.08;;;;;;;;;;5090757;28;20654;-69
2024/01/09 10:31:07;;;;;;;22.17;19.45;;;;;;;;;;5090208;28;20529;-66
2024/01/09 10:33:39;;;;;;;22.23;19.65;;;;;;;;;;5081435;28;20261;-66
2024/01/09 10:36:09;;;;;;;19.77;18.13;;;;;;;;;;5096777;28;20286;-66
2024/01/09 10:38:37;;;;;;;23.27;18.90;;;;;;;;;;5100303;28;20293;-66
2024/01/09 10:41:18;;;;;;;22.23;19.27;;;;;;;;;;5101122;28;20305;-66
2024/01/09 10:43:46;;;;;;;20.00;17.98;;;;;;;;;;5100081;28;20266;-66
2024/01/09 10:46:15;;;;;;;20.17;18.17;;;;;;;;;;5099034;28;20210;-66
2024/01/09 10:48:43;;;;;;;19.25;17.25;;;;;;;;;;5100827;28;20286;-66
2024/01/09 10:51:15;;;;;;;20.13;18.33;;;;;;;;;;5080220;28;20259;-66
2024/01/09 10:53:44;;;;;;;21.27;18.23;;;;;;;;;;5096012;28;20278;-66
2024/01/09 10:56:15;;;;;;;21.40;19.17;;;;;;;;;;5100334;28;20301;-66
2024/01/09 10:58:45;;;;;;;20.85;19.05;;;;;;;;;;5097491;28;20198;-67
2024/01/09 11:01:14;;;;;;;21.67;19.85;;;;;;;;;;5099215;28;20329;-66
2024/01/09 11:03:42;;;;;;;23.33;20.88;;;;;;;;;;5098911;28;20893;-66
2024/01/09 11:06:11;;;;;;;22.85;20.63;;;;;;;;;;5097807;28;20644;-68
2024/01/09 11:08:43;;;;;;;25.95;21.50;;;;;;;;;;5099194;28;20250;-66
2024/01/09 11:11:14;;;;;;;23.33;21.17;;;;;;;;;;5098296;28;20688;-66
2024/01/09 11:13:46;;;;;;;23.17;21.08;;;;;;;;;;5097364;28;20693;-66
2024/01/09 11:16:15;;;;;;;25.05;22.23;;;;;;;;;;5079796;28;20194;-66
2024/01/09 11:18:44;;;;;;;24.77;22.40;;;;;;;;;;5097822;28;20266;-66
2024/01/09 11:21:12;;;;;;;24.15;21.92;;;;;;;;;;5079091;28;20201;-66
2024/01/09 11:23:57;;;;;;;21.50;19.73;;;;;;;;;;5079788;28;20198;-67
2024/01/09 11:26:27;;;;;;;23.20;21.20;;;;;;;;;;5094552;28;20278;-66
2024/01/09 11:28:56;;;;;;;23.05;20.88;;;;;;;;;;5079800;28;20209;-66
2024/01/09 11:31:24;;;;;;;22.52;20.63;;;;;;;;;;5098063;28;20268;-66
2024/01/09 11:33:53;;;;;;;21.90;19.77;;;;;;;;;;5098172;28;20615;-66
2024/01/09 11:36:28;;;;;;;22.30;20.08;;;;;;;;;;5097990;28;20206;-66
2024/01/09 11:38:59;;;;;;;23.52;21.25;;;;;;;;;;5097842;28;20232;-66
2024/01/09 11:41:32;;;;;;;22.10;20.05;;;;;;;;;;5078642;28;20223;-66
2024/01/09 11:44:04;;;;;;;24.55;21.80;;;;;;;;;;5088136;28;20693;-66
2024/01/09 11:46:34;;;;;;;24.02;21.52;;;;;;;;;;5077166;28;20655;-66
2024/01/09 11:49:02;;;;;;;21.73;19.63;;;;;;;;;;5095678;28;20275;-65
2024/01/09 11:51:31;;;;;;;22.00;20.38;;;;;;;;;;5097055;28;20632;-67
2024/01/09 11:54:01;;;;;;;22.65;20.58;;;;;;;;;;5078200;28;20247;-65
2024/01/09 11:56:30;;;;;;;23.75;21.38;;;;;;;;;;5095928;28;20197;-65
2024/01/09 11:58:58;;;;;;;23.08;20.80;;;;;;;;;;5094651;28;20203;-65
2024/01/09 12:01:27;;;;;;;22.85;20.55;;;;;;;;;;5092211;28;20191;-65
2024/01/09 12:03:56;;;;;;;24.35;22.15;;;;;;;;;;5093660;28;20196;-65
2024/01/09 12:06:25;;;;;;;22.83;20.85;;;;;;;;;;5090921;28;20669;-65
2024/01/09 12:08:54;;;;;;;22.50;20.58;;;;;;;;;;5095840;28;20196;-65
2024/01/09 12:11:23;;;;;;;22.08;20.13;;;;;;;;;;5096715;28;20290;-65
2024/01/09 12:14:00;;;;;;;23.00;20.90;;;;;;;;;;5077668;28;20195;-66
2024/01/09 12:16:29;;;;;;;24.60;22.30;;;;;;;;;;5093610;28;20191;-63
2024/01/09 12:18:58;;;;;;;24.48;22.00;;;;;;;;;;5094640;28;20215;-66
2024/01/09 12:21:27;;;;;;;23.63;21.58;;;;;;;;;;5092462;28;20563;-65
2024/01/09 12:23:56;;;;;;;24.77;22.10;;;;;;;;;;5093562;28;20233;-65
2024/01/09 12:26:28;;;;;;;21.85;20.20;;;;;;;;;;5075563;28;20203;-64
2024/01/09 12:28:56;;;;;;;22.80;20.90;;;;;;;;;;5094515;28;20195;-65
2024/01/09 12:31:25;;;;;;;23.08;21.08;;;;;;;;;;5091879;28;20215;-65
2024/01/09 12:33:54;;;;;;;22.83;20.73;;;;;;;;;;5076849;28;20196;-67
2024/01/09 12:36:23;;;;;;;23.77;21.55;;;;;;;;;;5093652;28;20214;-65
2024/01/09 12:38:53;;;;;;;24.08;21.77;;;;;;;;;;5092609;28;20201;-64
2024/01/09 12:41:22;;;;;;;22.27;20.33;;;;;;;;;;5092900;28;20231;-65
2024/01/09 12:43:52;;;;;;;21.27;19.48;;;;;;;;;;5089164;28;20196;-64
2024/01/09 12:46:21;;;;;;;24.65;22.45;;;;;;;;;;5088549;28;20203;-64
2024/01/09 12:48:49;;;;;;;25.25;22.70;;;;;;;;;;5085803;28;20203;-65
2024/01/09 12:51:18;;;;;;;23.48;21.42;;;;;;;;;;5073668;28;20202;-64
2024/01/09 12:53:48;;;;;;;23.05;21.15;;;;;;;;;;5091622;28;20211;-65
2024/01/09 12:56:16;;;;;;;23.80;21.80;;;;;;;;;;5084450;28;20218;-65
2024/01/09 12:58:45;;;;;;;24.20;22.20;;;;;;;;;;5090555;28;20571;-65
2024/01/09 13:01:15;;;;;;;23.30;21.20;;;;;;;;;;5089022;28;20245;-65
2024/01/09 13:03:43;;;;;;;23.42;21.40;;;;;;;;;;5090599;28;20215;-65
2024/01/09 13:06:11;;;;;;;24.95;22.70;;;;;;;;;;5068885;28;20204;-66
2024/01/09 13:08:40;;;;;;;23.13;20.92;;;;;;;;;;5087775;28;20210;-66
2024/01/09 13:11:09;;;;;;;23.00;20.92;;;;;;;;;;5090866;28;20306;-65
2024/01/09 13:13:38;;;;;;;23.50;21.38;;;;;;;;;;5090931;28;20280;-65
2024/01/09 13:16:07;;;;;;;23.67;21.48;;;;;;;;;;5090577;28;20207;-66
2024/01/09 13:18:37;;;;;;;24.25;22.00;;;;;;;;;;5091191;28;20207;-66
2024/01/09 13:21:05;;;;;;;23.98;21.80;;;;;;;;;;5090423;28;20229;-66
2024/01/09 13:23:34;;;;;;;23.92;21.73;;;;;;;;;;5090609;28;20202;-66
2024/01/09 13:26:02;;;;;;;22.15;20.50;;;;;;;;;;5090318;28;20256;-65
2024/01/09 13:28:30;;;;;;;23.23;21.23;;;;;;;;;;5090687;28;20206;-65
2024/01/09 13:30:59;;;;;;;23.48;21.58;;;;;;;;;;5089825;28;20410;-65
2024/01/09 13:33:27;;;;;;;22.08;20.25;;;;;;;;;;5089389;28;20623;-65
2024/01/09 13:35:57;;;;;;;22.25;20.02;;;;;;;;;;5090553;28;20332;-66
2024/01/09 13:38:25;;;;;;;23.23;21.23;;;;;;;;;;5091083;28;20616;-65
2024/01/09 13:40:53;;;;;;;21.48;19.77;;;;;;;;;;5087399;28;20284;-64
2024/01/09 13:43:22;;;;;;;24.02;21.63;;;;;;;;;;5091836;28;20202;-64
2024/01/09 13:45:54;;;;;;;21.70;19.80;;;;;;;;;;5090462;28;20226;-64
2024/01/09 13:48:22;;;;;;;20.25;18.55;;;;;;;;;;5091185;28;20195;-64
2024/01/09 13:50:50;;;;;;;21.27;19.52;;;;;;;;;;5090013;28;20260;-65
2024/01/09 13:53:20;;;;;;;22.58;20.58;;;;;;;;;;5090275;28;20227;-64
2024/01/09 13:55:49;;;;;;;22.42;20.33;;;;;;;;;;5089844;28;20195;-65
2024/01/09 13:58:17;;;;;;;31.05;25.92;;;;;;;;;;5090308;28;20208;-65
2024/01/09 14:00:45;;;;;;;22.50;20.52;;;;;;;;;;5089065;28;20282;-64
2024/01/09 14:03:14;;;;;;;20.55;18.88;;;;;;;;;;5088276;28;20649;-65
2024/01/09 14:05:42;;;;;;;20.88;19.20;;;;;;;;;;5071462;28;20191;-65
2024/01/09 14:08:10;;;;;;;20.38;18.58;;;;;;;;;;5089801;28;20207;-65
2024/01/09 14:10:40;;;;;;;21.92;19.73;;;;;;;;;;5088982;28;20195;-64
2024/01/09 14:13:08;;;;;;;20.55;18.95;;;;;;;;;;5089606;28;20564;-64
2024/01/09 14:15:37;;;;;;;20.40;18.70;;;;;;;;;;5071618;28;20199;-64
2024/01/09 14:18:05;;;;;;;21.77;19.77;;;;;;;;;;5090984;28;20196;-65
2024/01/09 14:20:34;;;;;;;22.08;19.88;;;;;;;;;;5089344;28;20658;-64
2024/01/09 14:23:02;;;;;;;21.40;19.40;;;;;;;;;;5091656;28;20199;-65
2024/01/09 14:25:30;;;;;;;19.77;18.25;;;;;;;;;;5088806;28;20525;-65
2024/01/09 14:28:00;;;;;;;21.85;19.75;;;;;;;;;;5090092;28;20232;-65
2024/01/09 14:30:28;;;;;;;20.67;19.02;;;;;;;;;;5068470;28;20214;-65